createdAt,value
2018-04-17T00:00:43.794Z,10.50
2018-04-17T00:03:11.272Z,10.40
2018-04-17T00:05:38.722Z,10.40
2018-04-17T00:08:06.172Z,10.40
2018-04-17T00:10:33.645Z,10.30
2018-04-17T00:13:01.092Z,10.30
2018-04-17T00:15:28.537Z,10.20
2018-04-17T00:17:56.021Z,10.20
2018-04-17T00:20:23.457Z,10.20
2018-04-17T00:22:50.909Z,10.10
2018-04-17T00:25:18.393Z,10.10
2018-04-17T00:27:45.840Z,10.00
2018-04-17T00:30:13.278Z,10.00
2018-04-17T00:32:40.741Z,10.00
2018-04-17T00:35:08.198Z,10.00
2018-04-17T00:37:35.672Z,9.90
2018-04-17T00:40:03.882Z,9.80
2018-04-17T00:42:31.324Z,9.80
2018-04-17T00:44:58.803Z,9.80
2018-04-17T00:47:26.241Z,9.70
2018-04-17T00:49:53.691Z,9.70
2018-04-17T00:52:21.244Z,9.70
2018-04-17T00:54:48.686Z,9.70
2018-04-17T00:57:16.889Z,9.60
2018-04-17T00:59:44.357Z,9.60
2018-04-17T01:02:11.811Z,9.60
2018-04-17T01:04:39.269Z,9.50
2018-04-17T01:07:06.741Z,9.50
2018-04-17T01:09:34.196Z,9.40
2018-04-17T01:12:01.635Z,9.40
2018-04-17T01:14:29.102Z,9.40
2018-04-17T01:16:56.544Z,9.40
2018-04-17T01:19:23.999Z,9.40
2018-04-17T01:21:51.469Z,9.40
2018-04-17T01:24:19.693Z,9.30
2018-04-17T01:26:47.160Z,9.30
2018-04-17T01:29:14.630Z,9.30
2018-04-17T01:31:42.841Z,9.30
2018-04-17T01:34:10.284Z,9.30
2018-04-17T01:36:37.774Z,9.30
2018-04-17T01:39:05.222Z,9.30
2018-04-17T01:41:32.665Z,9.20
2018-04-17T01:44:00.146Z,9.20
2018-04-17T01:46:27.582Z,9.10
2018-04-17T01:48:55.025Z,9.10
2018-04-17T01:51:22.497Z,9.10
2018-04-17T01:53:49.953Z,9.00
2018-04-17T01:56:17.398Z,9.00
2018-04-17T01:58:44.898Z,9.00
2018-04-17T02:01:12.337Z,8.90
2018-04-17T02:03:40.550Z,8.90
2018-04-17T02:06:08.031Z,8.90
2018-04-17T02:08:35.469Z,8.80
2018-04-17T02:11:02.927Z,8.80
2018-04-17T02:13:30.394Z,8.80
2018-04-17T02:15:57.837Z,8.80
2018-04-17T02:18:25.287Z,8.70
2018-04-17T02:20:52.806Z,8.70
2018-04-17T02:23:21.028Z,8.70
2018-04-17T02:25:48.460Z,8.70
2018-04-17T02:28:15.935Z,8.70
2018-04-17T02:30:43.393Z,8.70
2018-04-17T02:33:10.846Z,8.70
2018-04-17T02:35:38.333Z,8.70
2018-04-17T02:38:05.782Z,8.60
2018-04-17T02:40:33.227Z,8.60
2018-04-17T02:43:00.681Z,8.60
2018-04-17T02:45:28.129Z,8.50
2018-04-17T02:47:56.370Z,8.50
2018-04-17T02:50:24.592Z,8.50
2018-04-17T02:52:52.089Z,8.50
2018-04-17T02:55:20.342Z,8.40
2018-04-17T02:57:47.801Z,8.40
2018-04-17T03:00:16.849Z,8.40
2018-04-17T03:02:44.310Z,8.40
2018-04-17T03:05:11.755Z,8.40
2018-04-17T03:07:39.193Z,8.40
2018-04-17T03:10:06.671Z,8.40
2018-04-17T03:12:34.115Z,8.30
2018-04-17T03:15:01.596Z,8.30
2018-04-17T03:17:29.094Z,8.30
2018-04-17T03:19:56.542Z,8.30
2018-04-17T03:22:24.015Z,8.30
2018-04-17T03:24:52.244Z,8.30
2018-04-17T03:27:19.692Z,8.20
2018-04-17T03:29:47.150Z,8.20
2018-04-17T03:32:14.650Z,8.20
2018-04-17T03:34:42.086Z,8.20
2018-04-17T03:37:09.516Z,8.20
2018-04-17T03:39:37.090Z,8.20
2018-04-17T03:42:04.551Z,8.20
2018-04-17T03:44:32.027Z,8.20
2018-04-17T03:46:59.484Z,8.10
2018-04-17T03:49:27.692Z,8.10
2018-04-17T03:51:55.165Z,8.10
2018-04-17T03:54:22.622Z,8.10
2018-04-17T03:56:50.077Z,8.10
2018-04-17T03:59:17.529Z,8.10
2018-04-17T04:01:44.972Z,8.10
2018-04-17T04:04:13.178Z,8.10
2018-04-17T04:06:40.640Z,8.10
2018-04-17T04:09:08.072Z,8.10
2018-04-17T04:11:35.509Z,8.10
2018-04-17T04:14:03.800Z,8.10
2018-04-17T04:16:43.259Z,8.10
2018-04-17T04:19:22.613Z,8.10
2018-04-17T04:22:01.914Z,8.10
2018-04-17T04:24:41.344Z,8.10
2018-04-17T04:27:08.796Z,8.10
2018-04-17T04:29:36.587Z,8.10
2018-04-17T04:32:04.140Z,8.10
2018-04-17T04:34:31.745Z,8.10
2018-04-17T04:36:59.187Z,8.00
2018-04-17T04:39:27.412Z,8.00
2018-04-17T04:41:54.868Z,8.00
2018-04-17T04:44:22.313Z,8.00
2018-04-17T04:46:49.780Z,8.00
2018-04-17T04:49:17.218Z,8.00
2018-04-17T04:51:44.691Z,8.00
2018-04-17T04:54:12.143Z,8.00
2018-04-17T04:56:39.592Z,8.10
2018-04-17T04:59:07.813Z,8.10
2018-04-17T05:01:35.291Z,8.10
2018-04-17T05:04:02.747Z,8.10
2018-04-17T05:06:30.257Z,8.10
2018-04-17T05:08:57.720Z,8.10
2018-04-17T05:11:25.181Z,8.10
2018-04-17T05:13:52.621Z,8.20
2018-04-17T05:16:20.077Z,8.20
2018-04-17T05:18:47.515Z,8.20
2018-04-17T05:21:14.960Z,8.20
2018-04-17T05:23:42.412Z,8.20
2018-04-17T05:26:09.854Z,8.30
2018-04-17T05:28:37.313Z,8.30
2018-04-17T05:31:04.762Z,8.30
2018-04-17T05:33:32.962Z,8.30
2018-04-17T05:36:00.425Z,8.30
2018-04-17T05:38:27.873Z,8.30
2018-04-17T05:40:55.328Z,8.40
2018-04-17T05:43:22.776Z,8.40
2018-04-17T05:45:50.219Z,8.40
2018-04-17T05:48:17.659Z,8.40
2018-04-17T05:50:45.880Z,8.50
2018-04-17T05:53:13.322Z,8.50
2018-04-17T05:55:40.829Z,8.50
2018-04-17T05:58:08.216Z,8.60
2018-04-17T06:00:35.648Z,8.60
2018-04-17T06:03:03.856Z,8.70
2018-04-17T06:05:31.338Z,8.70
2018-04-17T06:07:58.778Z,8.80
2018-04-17T06:10:26.223Z,8.80
2018-04-17T06:12:53.682Z,8.90
2018-04-17T06:15:21.116Z,8.90
2018-04-17T06:17:48.570Z,9.00
2018-04-17T06:20:16.023Z,9.10
2018-04-17T06:22:44.240Z,9.20
2018-04-17T06:25:11.696Z,9.20
2018-04-17T06:27:39.138Z,9.30
2018-04-17T06:30:06.583Z,9.40
2018-04-17T06:32:34.033Z,9.50
2018-04-17T06:35:02.266Z,9.70
2018-04-17T06:37:29.689Z,9.70
2018-04-17T06:39:57.142Z,9.80
2018-04-17T06:42:24.584Z,9.90
2018-04-17T06:44:52.795Z,10.10
2018-04-17T06:47:20.254Z,10.10
2018-04-17T06:49:47.690Z,10.20
2018-04-17T06:52:15.132Z,10.30
2018-04-17T06:54:42.587Z,10.40
2018-04-17T06:57:10.031Z,10.50
2018-04-17T06:59:38.229Z,10.80
2018-04-17T07:02:05.724Z,10.70
2018-04-17T07:04:33.148Z,10.90
2018-04-17T07:07:00.596Z,11.00
2018-04-17T07:09:28.065Z,11.10
2018-04-17T07:11:55.512Z,11.20
2018-04-17T07:14:22.952Z,11.30
2018-04-17T07:16:50.443Z,11.40
2018-04-17T07:19:17.888Z,11.50
2018-04-17T07:21:45.357Z,11.60
2018-04-17T07:24:12.822Z,11.70
2018-04-17T07:26:41.039Z,11.90
2018-04-17T07:29:08.502Z,11.90
2018-04-17T07:31:35.959Z,12.00
2018-04-17T07:34:03.407Z,12.10
2018-04-17T07:36:30.902Z,12.20
2018-04-17T07:38:58.337Z,12.30
2018-04-17T07:41:25.787Z,12.30
2018-04-17T07:43:53.261Z,12.40
2018-04-17T07:46:20.701Z,12.50
2018-04-17T07:48:50.072Z,12.60
2018-04-17T07:51:17.762Z,12.70
2018-04-17T07:53:45.209Z,12.80
2018-04-17T07:56:12.639Z,12.90
2018-04-17T07:58:40.105Z,13.00
2018-04-17T08:01:07.548Z,13.10
2018-04-17T08:03:34.983Z,13.20
2018-04-17T08:06:03.220Z,13.30
2018-04-17T08:08:30.696Z,13.30
2018-04-17T08:10:58.136Z,13.40
2018-04-17T08:13:25.609Z,13.40
2018-04-17T08:15:53.055Z,13.40
2018-04-17T08:18:20.506Z,13.50
2018-04-17T08:20:47.969Z,13.50
2018-04-17T08:23:15.408Z,13.60
2018-04-17T08:25:42.868Z,13.60
2018-04-17T08:28:10.347Z,13.70
2018-04-17T08:30:38.137Z,13.80
2018-04-17T08:33:06.327Z,13.90
2018-04-17T08:35:33.811Z,13.90
2018-04-17T08:38:01.269Z,14.00
2018-04-17T08:40:29.478Z,14.10
2018-04-17T08:42:57.702Z,14.20
2018-04-17T08:45:25.142Z,14.20
2018-04-17T08:47:52.606Z,14.30
2018-04-17T08:50:20.053Z,14.30
2018-04-17T08:52:47.493Z,14.40
2018-04-17T08:55:14.974Z,14.40
2018-04-17T08:57:42.397Z,14.50
2018-04-17T09:00:09.875Z,14.60
2018-04-17T09:02:37.306Z,14.70
2018-04-17T09:05:05.509Z,14.80
2018-04-17T09:07:32.986Z,14.80
2018-04-17T09:10:01.177Z,15.00
2018-04-17T09:12:28.621Z,15.00
2018-04-17T09:14:56.089Z,15.10
2018-04-17T09:17:23.532Z,15.20
2018-04-17T09:19:50.972Z,15.30
2018-04-17T09:22:18.440Z,15.40
2018-04-17T09:24:46.053Z,15.50
2018-04-17T09:27:13.495Z,15.50
2018-04-17T09:29:41.741Z,15.60
2018-04-17T09:32:09.182Z,15.60
2018-04-17T09:34:36.633Z,15.70
2018-04-17T09:37:04.105Z,15.90
2018-04-17T09:39:31.540Z,16.00
2018-04-17T09:41:58.982Z,16.20
2018-04-17T09:44:26.436Z,16.40
2018-04-17T09:46:53.904Z,16.50
2018-04-17T09:49:21.345Z,16.70
2018-04-17T09:51:48.774Z,16.80
2018-04-17T09:54:17.037Z,17.00
2018-04-17T09:56:44.469Z,17.00
2018-04-17T09:59:11.914Z,17.10
2018-04-17T10:01:39.377Z,17.20
2018-04-17T10:04:06.848Z,17.30
2018-04-17T10:06:34.293Z,17.40
2018-04-17T10:09:02.425Z,17.50
2018-04-17T10:11:29.874Z,17.50
2018-04-17T10:13:57.309Z,17.40
2018-04-17T10:16:24.785Z,17.30
2018-04-17T10:18:52.224Z,17.30
2018-04-17T10:21:20.428Z,17.50
2018-04-17T10:23:47.887Z,17.40
2018-04-17T10:26:15.330Z,17.50
2018-04-17T10:28:42.765Z,17.60
2018-04-17T10:31:10.229Z,17.80
2018-04-17T10:33:37.681Z,17.80
2018-04-17T10:36:05.887Z,18.00
2018-04-17T10:38:33.343Z,17.90
2018-04-17T10:41:00.777Z,18.00
2018-04-17T10:43:28.231Z,18.10
2018-04-17T10:45:55.673Z,18.20
2018-04-17T10:48:23.137Z,18.30
2018-04-17T10:50:50.576Z,18.40
2018-04-17T10:53:18.812Z,18.50
2018-04-17T10:55:46.277Z,18.50
2018-04-17T10:58:13.711Z,18.50
2018-04-17T11:00:41.185Z,18.60
2018-04-17T11:03:08.627Z,18.80
2018-04-17T11:05:36.059Z,19.00
2018-04-17T11:08:03.522Z,19.20
2018-04-17T11:10:30.961Z,19.30
2018-04-17T11:12:58.404Z,19.40
2018-04-17T11:15:25.873Z,19.30
2018-04-17T11:17:53.307Z,19.20
2018-04-17T11:20:21.510Z,19.40
2018-04-17T11:22:48.968Z,19.40
2018-04-17T11:25:16.421Z,19.50
2018-04-17T11:27:43.901Z,19.70
2018-04-17T11:30:11.332Z,19.90
2018-04-17T11:32:38.770Z,19.90
2018-04-17T11:35:06.238Z,19.80
2018-04-17T11:37:33.683Z,19.70
2018-04-17T11:40:01.119Z,19.50
2018-04-17T11:42:29.345Z,19.60
2018-04-17T11:44:57.040Z,19.60
2018-04-17T11:47:24.477Z,19.80
2018-04-17T11:49:52.077Z,20.10
2018-04-17T11:52:19.621Z,20.30
2018-04-17T11:54:47.089Z,20.40
2018-04-17T11:57:15.317Z,20.50
2018-04-17T11:59:42.767Z,20.50
2018-04-17T12:02:10.235Z,20.40
2018-04-17T12:04:37.689Z,20.30
2018-04-17T12:07:05.142Z,20.10
2018-04-17T12:09:32.586Z,19.90
2018-04-17T12:12:00.071Z,19.60
2018-04-17T12:14:27.508Z,19.40
2018-04-17T12:16:54.943Z,19.30
2018-04-17T12:19:22.412Z,19.30
2018-04-17T12:21:49.852Z,19.30
2018-04-17T12:24:17.336Z,19.40
2018-04-17T12:26:44.780Z,19.50
2018-04-17T12:29:12.214Z,19.60
2018-04-17T12:31:39.680Z,19.60
2018-04-17T12:34:07.116Z,19.80
2018-04-17T12:36:34.562Z,20.10
2018-04-17T12:39:02.039Z,20.40
2018-04-17T12:41:29.491Z,20.60
2018-04-17T12:43:56.929Z,20.80
2018-04-17T12:46:24.405Z,21.00
2018-04-17T12:48:51.848Z,21.20
2018-04-17T12:51:19.284Z,21.50
2018-04-17T12:53:46.745Z,21.70
2018-04-17T12:56:14.183Z,21.80
2018-04-17T12:58:42.427Z,21.60
2018-04-17T13:01:09.889Z,21.60
2018-04-17T13:03:37.325Z,21.50
2018-04-17T13:06:04.776Z,21.30
2018-04-17T13:08:32.246Z,21.10
2018-04-17T13:10:59.688Z,20.90
2018-04-17T13:13:27.141Z,20.70
2018-04-17T13:15:54.604Z,20.60
2018-04-17T13:18:22.047Z,20.70
2018-04-17T13:20:49.503Z,20.70
2018-04-17T13:23:16.974Z,20.70
2018-04-17T13:25:44.413Z,20.60
2018-04-17T13:28:11.887Z,20.40
2018-04-17T13:30:39.333Z,20.30
2018-04-17T13:33:06.781Z,20.30
2018-04-17T13:35:34.337Z,20.50
2018-04-17T13:38:01.782Z,20.80
2018-04-17T13:40:29.223Z,21.00
2018-04-17T13:42:56.693Z,21.20
2018-04-17T13:45:24.124Z,21.30
2018-04-17T13:47:52.368Z,21.30
2018-04-17T13:50:19.799Z,21.30
2018-04-17T13:52:47.241Z,21.40
2018-04-17T13:55:14.706Z,21.70
2018-04-17T13:57:42.148Z,21.90
2018-04-17T14:00:09.658Z,22.00
2018-04-17T14:02:37.084Z,22.00
2018-04-17T14:05:04.529Z,21.90
2018-04-17T14:07:31.969Z,21.80
2018-04-17T14:09:59.426Z,21.70
2018-04-17T14:12:26.888Z,21.70
2018-04-17T14:14:54.337Z,21.50
2018-04-17T14:17:21.795Z,21.40
2018-04-17T14:19:49.257Z,21.10
2018-04-17T14:22:16.717Z,20.90
2018-04-17T14:24:44.165Z,20.70
2018-04-17T14:27:11.617Z,20.60
2018-04-17T14:29:39.095Z,20.70
2018-04-17T14:32:06.537Z,21.00
2018-04-17T14:34:33.974Z,21.40
2018-04-17T14:37:01.446Z,21.70
2018-04-17T14:39:28.957Z,22.00
2018-04-17T14:41:56.400Z,22.20
2018-04-17T14:44:23.845Z,22.50
2018-04-17T14:46:51.289Z,22.80
2018-04-17T14:49:18.752Z,23.30
2018-04-17T14:51:46.221Z,24.00
2018-04-17T14:54:13.672Z,25.40
2018-04-17T14:56:41.119Z,27.80
2018-04-17T14:59:08.580Z,30.20
2018-04-17T15:01:36.019Z,30.50
2018-04-17T15:04:03.486Z,32.10
2018-04-17T15:06:30.934Z,32.60
2018-04-17T15:08:58.368Z,31.30
2018-04-17T15:11:25.840Z,29.70
2018-04-17T15:13:53.281Z,28.20
2018-04-17T15:16:20.759Z,26.90
2018-04-17T15:18:48.223Z,25.90
2018-04-17T15:21:15.679Z,25.00
2018-04-17T15:23:43.145Z,26.90
2018-04-17T15:26:10.591Z,30.20
2018-04-17T15:28:38.035Z,33.60
2018-04-17T15:31:05.472Z,36.40
2018-04-17T15:33:32.931Z,37.90
2018-04-17T15:36:00.476Z,37.90
2018-04-17T15:38:27.925Z,37.30
2018-04-17T15:40:55.372Z,36.10
2018-04-17T15:43:22.848Z,36.50
2018-04-17T15:45:50.298Z,36.00
2018-04-17T15:48:17.738Z,34.40
2018-04-17T15:50:45.388Z,34.50
2018-04-17T15:53:12.776Z,35.40
2018-04-17T15:55:40.217Z,34.40
2018-04-17T15:58:07.684Z,32.60
2018-04-17T16:00:35.125Z,30.90
2018-04-17T16:03:02.593Z,29.30
2018-04-17T16:05:30.061Z,27.90
2018-04-17T16:07:57.512Z,26.70
2018-04-17T16:10:25.002Z,25.70
2018-04-17T16:12:52.507Z,25.00
2018-04-17T16:15:20.724Z,23.70
2018-04-17T16:17:48.156Z,23.60
2018-04-17T16:20:15.623Z,23.40
2018-04-17T16:22:43.094Z,23.50
2018-04-17T16:25:10.570Z,24.30
2018-04-17T16:27:38.031Z,26.60
2018-04-17T16:30:06.251Z,31.30
2018-04-17T16:32:33.730Z,31.20
2018-04-17T16:35:01.211Z,33.00
2018-04-17T16:37:28.660Z,33.90
2018-04-17T16:39:56.092Z,34.20
2018-04-17T16:42:23.561Z,34.00
2018-04-17T16:44:51.048Z,33.20
2018-04-17T16:47:19.273Z,30.40
2018-04-17T16:49:46.820Z,30.30
2018-04-17T16:52:14.275Z,29.10
2018-04-17T16:54:41.737Z,28.00
2018-04-17T16:57:09.262Z,27.00
2018-04-17T16:59:36.696Z,26.10
2018-04-17T17:02:08.017Z,25.20
2018-04-17T17:04:35.456Z,24.50
2018-04-17T17:07:02.963Z,23.80
2018-04-17T17:09:31.213Z,22.70
2018-04-17T17:11:58.656Z,22.70
2018-04-17T17:14:26.146Z,22.30
2018-04-17T17:16:54.393Z,21.50
2018-04-17T17:19:21.840Z,21.50
2018-04-17T17:21:49.329Z,21.20
2018-04-17T17:24:17.606Z,20.40
2018-04-17T17:26:45.814Z,20.10
2018-04-17T17:29:13.257Z,20.10
2018-04-17T17:31:40.723Z,19.80
2018-04-17T17:34:08.185Z,19.50
2018-04-17T17:36:35.639Z,19.30
2018-04-17T17:39:03.336Z,19.00
2018-04-17T17:41:31.895Z,18.50
2018-04-17T17:43:59.560Z,18.50
2018-04-17T17:46:27.252Z,18.30
2018-04-17T17:48:54.945Z,18.10
2018-04-17T17:51:23.405Z,17.70
2018-04-17T17:53:51.051Z,17.70
2018-04-17T17:56:19.567Z,17.40
2018-04-17T17:58:48.660Z,17.40
2018-04-17T18:01:16.335Z,17.20
2018-04-17T18:03:44.097Z,17.10
2018-04-17T18:06:11.553Z,16.90
2018-04-17T18:08:39.032Z,16.80
2018-04-17T18:11:06.497Z,16.70
2018-04-17T18:13:33.969Z,16.60
2018-04-17T18:16:01.400Z,16.50
2018-04-17T18:18:28.850Z,16.40
2018-04-17T18:20:56.322Z,16.30
2018-04-17T18:23:23.769Z,16.20
2018-04-17T18:25:51.267Z,16.10
2018-04-17T18:28:19.523Z,15.80
2018-04-17T18:30:46.978Z,15.80
2018-04-17T18:33:14.422Z,15.70
2018-04-17T18:35:41.890Z,15.60
2018-04-17T18:38:09.325Z,15.50
2018-04-17T18:40:36.775Z,15.40
2018-04-17T18:43:04.233Z,15.30
2018-04-17T18:45:31.690Z,15.20
2018-04-17T18:47:59.158Z,15.10
2018-04-17T18:50:26.602Z,15.00
2018-04-17T18:52:54.032Z,14.90
2018-04-17T18:55:21.505Z,14.80
2018-04-17T18:57:48.972Z,14.80
2018-04-17T19:00:16.430Z,14.70
2018-04-17T19:02:43.884Z,14.60
2018-04-17T19:05:11.340Z,14.50
2018-04-17T19:07:38.781Z,14.50
2018-04-17T19:10:06.252Z,14.40
2018-04-17T19:12:33.714Z,14.40
2018-04-17T19:15:01.169Z,14.30
2018-04-17T19:17:28.634Z,14.20
2018-04-17T19:19:56.082Z,14.20
2018-04-17T19:22:23.537Z,14.10
2018-04-17T19:24:50.995Z,14.00
2018-04-17T19:27:18.441Z,14.00
2018-04-17T19:29:45.901Z,13.90
2018-04-17T19:32:13.371Z,13.90
2018-04-17T19:34:40.810Z,13.90
2018-04-17T19:37:11.100Z,13.80
2018-04-17T19:39:38.594Z,13.70
2018-04-17T19:42:06.028Z,13.70
2018-04-17T19:44:33.466Z,13.60
2018-04-17T19:47:00.934Z,13.60
2018-04-17T19:49:28.386Z,13.50
2018-04-17T19:51:55.831Z,13.50
2018-04-17T19:54:23.300Z,13.40
2018-04-17T19:56:50.744Z,13.40
2018-04-17T19:59:18.201Z,13.30
2018-04-17T20:01:45.660Z,13.30
2018-04-17T20:04:13.878Z,13.20
2018-04-17T20:06:41.322Z,13.20
2018-04-17T20:09:08.829Z,13.20
2018-04-17T20:11:36.301Z,13.10
2018-04-17T20:14:03.724Z,13.10
2018-04-17T20:16:31.960Z,13.00
2018-04-17T20:18:59.421Z,13.00
2018-04-17T20:21:26.892Z,13.00
2018-04-17T20:23:55.101Z,12.90
2018-04-17T20:26:22.625Z,12.90
2018-04-17T20:28:50.022Z,12.90
2018-04-17T20:31:17.509Z,12.90
2018-04-17T20:33:44.935Z,12.80
2018-04-17T20:36:12.374Z,12.80
2018-04-17T20:38:39.853Z,12.80
2018-04-17T20:41:07.288Z,12.80
2018-04-17T20:43:34.732Z,12.70
2018-04-17T20:46:02.206Z,12.70
2018-04-17T20:48:30.409Z,12.70
2018-04-17T20:50:57.889Z,12.60
2018-04-17T20:53:25.387Z,12.70
2018-04-17T20:55:52.828Z,12.60
2018-04-17T20:58:20.276Z,12.60
2018-04-17T21:00:48.562Z,12.50
2018-04-17T21:03:16.063Z,12.50
2018-04-17T21:05:43.508Z,12.50
2018-04-17T21:08:11.730Z,12.40
2018-04-17T21:10:39.974Z,12.40
2018-04-17T21:13:07.411Z,12.40
2018-04-17T21:15:34.858Z,12.40
2018-04-17T21:18:02.333Z,12.30
2018-04-17T21:20:29.777Z,12.30
2018-04-17T21:22:57.219Z,12.30
2018-04-17T21:25:24.691Z,12.30
2018-04-17T21:27:52.142Z,12.20
2018-04-17T21:30:19.576Z,12.20
2018-04-17T21:32:47.052Z,12.20
2018-04-17T21:35:14.541Z,12.20
2018-04-17T21:37:41.969Z,12.10
2018-04-17T21:40:09.428Z,12.10
2018-04-17T21:42:36.876Z,12.10
2018-04-17T21:45:04.315Z,12.10
2018-04-17T21:47:31.784Z,12.10
2018-04-17T21:49:59.220Z,12.10
2018-04-17T21:52:26.676Z,12.00
2018-04-17T21:54:54.157Z,12.00
2018-04-17T21:57:21.630Z,12.00
2018-04-17T21:59:49.049Z,12.00
2018-04-17T22:02:16.738Z,12.00
2018-04-17T22:04:44.173Z,11.90
2018-04-17T22:07:11.624Z,12.00
2018-04-17T22:09:39.089Z,11.90
2018-04-17T22:12:06.532Z,11.90
2018-04-17T22:14:33.987Z,11.90
2018-04-17T22:17:01.432Z,11.90
2018-04-17T22:19:28.882Z,11.90
2018-04-17T22:21:56.325Z,11.80
2018-04-17T22:24:24.559Z,11.80
2018-04-17T22:26:52.020Z,11.80
2018-04-17T22:29:19.454Z,11.80
2018-04-17T22:31:46.916Z,11.80
2018-04-17T22:34:14.367Z,11.80
2018-04-17T22:36:41.820Z,11.80
2018-04-17T22:39:09.284Z,11.80
2018-04-17T22:41:37.502Z,11.80
2018-04-17T22:44:05.712Z,11.80
2018-04-17T22:46:33.175Z,11.80
2018-04-17T22:49:00.626Z,11.80
2018-04-17T22:51:28.080Z,11.80
2018-04-17T22:53:55.553Z,11.80
2018-04-17T22:56:22.989Z,11.80
2018-04-17T22:58:50.494Z,11.80
2018-04-17T23:01:17.955Z,11.70
2018-04-17T23:03:46.167Z,11.70
2018-04-17T23:06:13.609Z,11.70
2018-04-17T23:08:41.086Z,11.70
2018-04-17T23:11:08.525Z,11.70
2018-04-17T23:13:35.977Z,11.70
2018-04-17T23:16:03.436Z,11.70
2018-04-17T23:18:30.874Z,11.70
2018-04-17T23:20:59.078Z,11.70
2018-04-17T23:23:26.535Z,11.60
2018-04-17T23:25:53.974Z,11.70
2018-04-17T23:28:21.438Z,11.60
2018-04-17T23:30:48.889Z,11.60
2018-04-17T23:33:16.337Z,11.60
2018-04-17T23:35:43.810Z,11.60
2018-04-17T23:38:11.245Z,11.60
2018-04-17T23:40:38.689Z,11.60
2018-04-17T23:43:06.927Z,11.60
2018-04-17T23:45:34.375Z,11.60
2018-04-17T23:48:01.821Z,11.60
2018-04-17T23:50:29.272Z,11.60
2018-04-17T23:52:56.725Z,11.60
2018-04-17T23:55:24.152Z,11.60
2018-04-17T23:57:51.596Z,11.50
